ジャカルタ の空港の天気 - METARとTAF

スカルノハッタ国際空港 ( WIII / CGK ) - インドネシア バンテン州、Cengkareng ( ジャカルタ近郊)
飛行場実況気象(Metar)
観測時間12/01 03:00 WIB (11/30 20:00 UTC)
風向・風速西南西 4m/s
視程7000m
天気現象
少しの雲 雲底高度 670m
気温25℃
湿度83%
気圧1009hPa
METARWIII 302000Z 24008KT 7000 FEW022 25/22 Q1009 NOSIG
過去の天気等 Google飛行場航空写真 Wunderground天気予報

過去48時間のMETAR

飛行場予報(TAF)
発表時間: 12/01 00:00 WIB (11/30 17:00 UTC)
予報対象時間: 1日1時 WIB ~ 2日7時 WIB
風向・風速南西 4m/s
視程5000m
天気現象煙霧
全天の4割程度の雲 雲底高度 610m
1日9時 WIB ~ 1日11時 WIB に徐々に
視程9000m
天気現象運行に影響にある天気現象が終了
TAF WIII 301700Z 3018/0124 23008KT 5000 HZ SCT020
BECMG 0102/0104 9000 NSW